Time;durP1;ratioP1;P1;durP2;ratioP2;P2;SDS_P1;SDS_P2;PMS_P1;PMS_P2;Temp;Humidity;BMP_temperature;BMP_pressure;BME280_temperature;BME280_humidity;BME280_pressure;Samples;Min_cycle;Max_cycle;Signal;HPM_P1;HPM_P2
2023/09/12 00:00:41;;;;;;;13.45;9.60;;;16.70;99.90;;;;;;4956408;28;22229;-85
2023/09/12 00:03:06;;;;;;;12.85;9.23;;;16.70;99.90;;;;;;4935229;29;20042;-85
2023/09/12 00:05:32;;;;;;;11.45;8.80;;;16.70;99.90;;;;;;4933795;29;20047;-85
2023/09/12 00:07:57;;;;;;;10.30;8.55;;;16.60;99.90;;;;;;4935303;29;20042;-86
2023/09/12 00:10:23;;;;;;;11.88;9.77;;;16.60;99.90;;;;;;4935413;29;20041;-85
2023/09/12 00:12:50;;;;;;;12.57;8.70;;;16.60;99.90;;;;;;4935047;29;20127;-86
2023/09/12 00:15:16;;;;;;;12.57;9.20;;;16.60;99.90;;;;;;4934255;29;20509;-85
2023/09/12 00:17:42;;;;;;;11.43;9.73;;;16.60;99.90;;;;;;4935433;29;20039;-85
2023/09/12 00:20:08;;;;;;;12.50;9.38;;;16.60;99.90;;;;;;4934422;29;20030;-85
2023/09/12 00:22:33;;;;;;;11.57;9.40;;;16.60;99.90;;;;;;4936166;29;20027;-86
2023/09/12 00:24:59;;;;;;;10.35;9.07;;;16.50;99.90;;;;;;4932142;29;20027;-85
2023/09/12 00:27:24;;;;;;;12.13;8.93;;;16.50;99.90;;;;;;4935747;29;20035;-85
2023/09/12 00:29:50;;;;;;;11.80;9.38;;;16.50;99.90;;;;;;4933065;29;20153;-86
2023/09/12 00:32:16;;;;;;;11.50;9.35;;;16.40;99.90;;;;;;4936060;29;21524;-87
2023/09/12 00:34:42;;;;;;;12.98;9.70;;;16.50;99.90;;;;;;4935162;29;20032;-85
2023/09/12 00:37:07;;;;;;;12.82;9.52;;;16.40;99.90;;;;;;4935574;29;20031;-85
2023/09/12 00:39:33;;;;;;;10.65;9.00;;;16.30;99.90;;;;;;4916400;29;20114;-85
2023/09/12 00:41:58;;;;;;;10.93;8.95;;;16.30;99.90;;;;;;4932141;29;20043;-85
2023/09/12 00:44:24;;;;;;;10.77;9.30;;;16.30;99.90;;;;;;4934416;29;20031;-85
2023/09/12 00:46:50;;;;;;;12.15;9.60;;;16.30;99.90;;;;;;4935553;29;20039;-85
2023/09/12 00:49:17;;;;;;;12.80;9.20;;;16.30;99.90;;;;;;4934832;29;20032;-85
2023/09/12 00:51:44;;;;;;;13.18;9.40;;;16.20;99.90;;;;;;4934770;29;20042;-86
2023/09/12 00:54:10;;;;;;;17.08;10.07;;;16.20;99.90;;;;;;4935449;29;20090;-85
2023/09/12 00:56:37;;;;;;;14.52;10.13;;;16.20;99.90;;;;;;4935577;29;20504;-86
2023/09/12 00:59:03;;;;;;;12.57;10.05;;;16.20;99.90;;;;;;4934306;29;20066;-85
2023/09/12 01:01:31;;;;;;;10.27;9.20;;;16.10;99.90;;;;;;4934827;29;20028;-84
2023/09/12 01:03:57;;;;;;;12.27;9.50;;;16.10;99.90;;;;;;4935270;29;20734;-85
2023/09/12 01:06:27;;;;;;;12.02;9.93;;;16.10;99.90;;;;;;4934784;29;20074;-85
2023/09/12 01:08:53;;;;;;;12.98;10.18;;;16.00;99.90;;;;;;4935228;29;20631;-85
2023/09/12 01:11:20;;;;;;;13.13;10.20;;;16.00;99.90;;;;;;4934385;29;20031;-85
2023/09/12 01:13:45;;;;;;;12.48;9.82;;;16.00;99.90;;;;;;4934805;29;20350;-85
2023/09/12 01:16:11;;;;;;;12.55;10.68;;;15.90;99.90;;;;;;4935221;29;20019;-85
2023/09/12 01:18:37;;;;;;;20.63;9.98;;;16.00;99.90;;;;;;4935401;29;20033;-86
2023/09/12 01:21:12;;;;;;;15.73;10.80;;;15.90;99.90;;;;;;4934453;29;20403;-85
2023/09/12 01:24:05;;;;;;;15.05;10.70;;;15.80;99.90;;;;;;4935635;29;20062;-85
2023/09/12 01:26:56;;;;;;;14.40;10.93;;;15.80;99.90;;;;;;4934500;29;20047;-85
2023/09/12 01:29:24;;;;;;;17.05;11.73;;;15.80;99.90;;;;;;4934516;29;20406;-85
2023/09/12 01:31:52;;;;;;;11.90;10.20;;;15.80;99.90;;;;;;4934531;29;20086;-85
2023/09/12 01:34:19;;;;;;;13.02;10.93;;;15.80;99.90;;;;;;4935282;29;20505;-85
2023/09/12 01:36:44;;;;;;;15.52;10.35;;;15.80;99.90;;;;;;4934083;29;20067;-85
2023/09/12 01:39:10;;;;;;;13.85;9.82;;;15.70;99.90;;;;;;4935344;29;20185;-84
2023/09/12 01:41:39;;;;;;;12.70;10.32;;;15.70;99.90;;;;;;4936069;29;20186;-85
2023/09/12 01:44:08;;;;;;;11.98;10.18;;;15.70;99.90;;;;;;4936683;29;20035;-85
2023/09/12 01:46:35;;;;;;;13.40;12.00;;;15.70;99.90;;;;;;4934767;29;20051;-84
2023/09/12 01:49:04;;;;;;;12.07;10.52;;;15.70;99.90;;;;;;4934634;29;20046;-85
2023/09/12 01:51:30;;;;;;;14.27;10.18;;;15.70;99.90;;;;;;4934984;29;20161;-85
2023/09/12 01:53:58;;;;;;;14.10;10.45;;;15.70;99.90;;;;;;4935381;29;20028;-86
2023/09/12 01:56:23;;;;;;;14.40;9.80;;;15.60;99.90;;;;;;4934895;29;20028;-85
2023/09/12 01:58:49;;;;;;;10.88;9.38;;;15.70;99.90;;;;;;4934997;29;20051;-84
2023/09/12 02:01:15;;;;;;;11.35;10.15;;;15.60;99.90;;;;;;4934349;29;20024;-83
2023/09/12 02:03:40;;;;;;;12.50;10.05;;;15.60;99.90;;;;;;4937767;29;20709;-84
2023/09/12 02:06:06;;;;;;;11.45;9.50;;;15.60;99.90;;;;;;4938363;29;20050;-83
2023/09/12 02:08:31;;;;;;;11.65;9.48;;;15.60;99.90;;;;;;4938316;29;20117;-84
2023/09/12 02:10:57;;;;;;;12.93;9.82;;;15.60;99.90;;;;;;4937857;29;20141;-84
2023/09/12 02:13:23;;;;;;;11.55;10.13;;;15.60;99.90;;;;;;4937663;29;20051;-84
2023/09/12 02:15:48;;;;;;;13.57;11.48;;;15.60;99.90;;;;;;4937856;29;20035;-83
2023/09/12 02:18:14;;;;;;;12.50;10.63;;;15.60;99.90;;;;;;4938055;29;20032;-84
2023/09/12 02:20:45;;;;;;;13.55;11.40;;;15.60;99.90;;;;;;4938305;29;20097;-84
2023/09/12 02:23:11;;;;;;;15.23;10.93;;;15.60;99.90;;;;;;4938148;29;20242;-84
2023/09/12 02:25:37;;;;;;;12.90;11.18;;;15.60;99.90;;;;;;4937955;29;20107;-83
2023/09/12 02:28:03;;;;;;;12.52;10.88;;;15.60;99.90;;;;;;4938476;29;20039;-83
2023/09/12 02:30:29;;;;;;;11.50;10.30;;;15.50;99.90;;;;;;4937611;29;20039;-83
2023/09/12 02:32:54;;;;;;;12.02;9.85;;;15.50;99.90;;;;;;4939326;29;20050;-83
2023/09/12 02:35:20;;;;;;;12.65;10.25;;;15.50;99.90;;;;;;4939359;29;20034;-84
2023/09/12 02:37:45;;;;;;;16.10;10.73;;;15.50;99.90;;;;;;4941505;29;20103;-83
2023/09/12 02:40:11;;;;;;;11.40;10.13;;;15.50;99.90;;;;;;4939129;29;20154;-84
2023/09/12 02:42:37;;;;;;;12.80;9.95;;;15.50;99.90;;;;;;4940785;29;20061;-83
2023/09/12 02:45:04;;;;;;;10.63;9.52;;;15.50;99.90;;;;;;4941590;29;20059;-84
2023/09/12 02:47:29;;;;;;;12.32;10.27;;;15.40;99.90;;;;;;4939870;29;20509;-83
2023/09/12 02:49:55;;;;;;;14.77;9.88;;;15.40;99.90;;;;;;4959445;28;20019;-82
2023/09/12 02:52:20;;;;;;;15.23;10.52;;;15.50;99.90;;;;;;4964196;28;20028;-82
2023/09/12 02:54:46;;;;;;;11.55;9.70;;;15.40;99.90;;;;;;4949902;28;20110;-84
2023/09/12 02:57:11;;;;;;;12.90;10.45;;;15.40;99.90;;;;;;4936268;29;20141;-83
2023/09/12 02:59:37;;;;;;;11.95;9.48;;;15.40;99.90;;;;;;4936517;29;20031;-85
2023/09/12 03:02:03;;;;;;;13.45;10.10;;;15.40;99.90;;;;;;4936272;29;20047;-83
2023/09/12 03:04:29;;;;;;;13.77;10.50;;;15.40;99.90;;;;;;4937096;29;20046;-83
2023/09/12 03:06:55;;;;;;;15.43;10.18;;;15.30;99.90;;;;;;4936039;29;20035;-83
2023/09/12 03:09:22;;;;;;;18.65;10.48;;;15.30;99.90;;;;;;4936723;29;20655;-84
2023/09/12 03:11:49;;;;;;;11.90;9.75;;;15.40;99.90;;;;;;4935862;29;20023;-83
2023/09/12 03:14:16;;;;;;;13.27;10.13;;;15.30;99.90;;;;;;4936489;29;20063;-83
2023/09/12 03:16:41;;;;;;;13.68;10.82;;;15.40;99.90;;;;;;4936435;29;20031;-83
2023/09/12 03:19:07;;;;;;;10.80;9.55;;;15.30;99.90;;;;;;4918412;29;20035;-84
2023/09/12 03:21:32;;;;;;;16.75;11.20;;;15.30;99.90;;;;;;4937328;29;20023;-84
2023/09/12 03:23:59;;;;;;;14.38;10.75;;;15.30;99.90;;;;;;4938960;29;20031;-84
2023/09/12 03:26:25;;;;;;;13.55;10.23;;;15.30;99.90;;;;;;4941521;29;20075;-83
2023/09/12 03:28:51;;;;;;;16.40;10.10;;;15.30;99.90;;;;;;4941433;29;20023;-83
2023/09/12 03:31:16;;;;;;;14.18;10.82;;;15.30;99.90;;;;;;4938807;29;20407;-84
2023/09/12 03:33:47;;;;;;;15.40;10.73;;;15.30;99.90;;;;;;4936647;29;20023;-84
2023/09/12 03:36:13;;;;;;;10.30;9.18;;;15.20;99.90;;;;;;4919486;29;20035;-83
2023/09/12 03:38:38;;;;;;;10.23;8.80;;;15.20;99.90;;;;;;4936530;29;20054;-84
2023/09/12 03:41:04;;;;;;;12.65;9.57;;;15.20;99.90;;;;;;4935295;29;20034;-84
2023/09/12 03:43:30;;;;;;;14.00;9.52;;;15.20;99.90;;;;;;4935771;29;20522;-84
2023/09/12 03:45:56;;;;;;;14.45;9.43;;;15.10;99.90;;;;;;4935575;29;20019;-83
2023/09/12 03:48:21;;;;;;;11.27;9.75;;;15.10;99.90;;;;;;4936410;29;20609;-83
2023/09/12 03:50:47;;;;;;;13.48;10.23;;;15.00;99.90;;;;;;4934438;29;20054;-83
2023/09/12 03:53:14;;;;;;;13.07;10.50;;;15.00;99.90;;;;;;4936290;29;20032;-83
2023/09/12 03:55:40;;;;;;;13.85;10.20;;;15.00;99.90;;;;;;4935176;29;20142;-83
2023/09/12 03:58:05;;;;;;;11.38;9.43;;;15.00;99.90;;;;;;4935993;29;20861;-84
2023/09/12 04:00:31;;;;;;;12.07;10.52;;;15.00;99.90;;;;;;4934808;29;20118;-84
2023/09/12 04:02:56;;;;;;;12.82;10.98;;;15.00;99.90;;;;;;4934827;29;20024;-84
2023/09/12 04:05:22;;;;;;;14.77;10.85;;;14.90;99.90;;;;;;4935597;29;20035;-83
2023/09/12 04:07:47;;;;;;;14.57;11.15;;;14.90;99.90;;;;;;4935822;29;20529;-83
2023/09/12 04:10:13;;;;;;;11.30;10.10;;;14.90;99.90;;;;;;4933850;29;20070;-84
2023/09/12 04:12:39;;;;;;;14.50;11.60;;;14.90;99.90;;;;;;4935201;29;20034;-84
2023/09/12 04:15:06;;;;;;;14.50;10.63;;;14.90;99.90;;;;;;4935541;29;20039;-84
2023/09/12 04:17:31;;;;;;;12.00;10.48;;;14.90;99.90;;;;;;4934719;29;20031;-84
2023/09/12 04:19:57;;;;;;;16.73;11.35;;;14.90;99.90;;;;;;4935107;29;20032;-84
2023/09/12 04:22:22;;;;;;;13.15;11.70;;;14.90;99.90;;;;;;4935177;29;20095;-84
2023/09/12 04:24:48;;;;;;;15.82;10.98;;;14.90;99.90;;;;;;4933369;29;20050;-84
2023/09/12 04:27:14;;;;;;;14.82;11.40;;;14.90;99.90;;;;;;4934741;29;21027;-84
2023/09/12 04:29:39;;;;;;;14.82;11.40;;;14.90;99.90;;;;;;4934108;29;20055;-84
2023/09/12 04:32:05;;;;;;;15.65;10.80;;;14.90;99.90;;;;;;4935951;29;20051;-84
2023/09/12 04:34:31;;;;;;;15.40;11.45;;;14.90;99.90;;;;;;4935870;29;20030;-84
2023/09/12 04:36:57;;;;;;;13.18;10.07;;;14.80;99.90;;;;;;4934706;29;20024;-84
2023/09/12 04:39:22;;;;;;;11.52;9.60;;;14.80;99.90;;;;;;4936959;29;20027;-85
2023/09/12 04:41:48;;;;;;;17.80;9.40;;;14.80;99.90;;;;;;4937710;29;20031;-84
2023/09/12 04:44:14;;;;;;;18.05;10.13;;;14.80;99.90;;;;;;4936122;28;20035;-84
2023/09/12 04:46:40;;;;;;;13.50;10.40;;;14.70;99.90;;;;;;4933804;29;20036;-84
2023/09/12 04:49:05;;;;;;;12.93;10.02;;;14.70;99.90;;;;;;4933006;29;20031;-84
2023/09/12 04:51:31;;;;;;;16.77;10.88;;;14.70;99.90;;;;;;4933562;29;20046;-85
2023/09/12 04:53:57;;;;;;;11.75;10.38;;;14.70;99.90;;;;;;4932495;29;20039;-84
2023/09/12 04:56:25;;;;;;;13.63;10.60;;;14.70;99.90;;;;;;4932656;29;20434;-85
2023/09/12 04:58:50;;;;;;;14.43;9.93;;;14.70;99.90;;;;;;4934733;29;20062;-83
2023/09/12 05:01:16;;;;;;;14.82;10.57;;;14.70;99.90;;;;;;4934900;29;20427;-84
2023/09/12 05:03:43;;;;;;;15.15;10.10;;;14.70;99.90;;;;;;4934550;29;20047;-85
2023/09/12 05:06:10;;;;;;;11.82;9.68;;;14.70;99.90;;;;;;4933561;29;20406;-84
2023/09/12 05:08:35;;;;;;;14.02;10.15;;;14.70;99.90;;;;;;4935421;29;20031;-84
2023/09/12 05:11:02;;;;;;;21.10;11.80;;;14.70;99.90;;;;;;4933142;29;20035;-84
2023/09/12 05:13:28;;;;;;;12.55;9.57;;;14.70;99.90;;;;;;4935694;29;20038;-84
2023/09/12 05:15:53;;;;;;;14.68;10.60;;;14.70;99.90;;;;;;4934574;29;21324;-84
2023/09/12 05:18:19;;;;;;;14.32;10.40;;;14.70;99.90;;;;;;4935981;29;20037;-85
2023/09/12 05:20:44;;;;;;;14.15;10.20;;;14.70;99.90;;;;;;4934334;29;20118;-84
2023/09/12 05:23:10;;;;;;;13.93;11.23;;;14.80;99.90;;;;;;4936094;29;20034;-84
2023/09/12 05:25:36;;;;;;;13.10;10.38;;;14.80;99.90;;;;;;4934794;29;20063;-84
2023/09/12 05:28:03;;;;;;;14.50;10.98;;;14.90;99.90;;;;;;4936336;29;20126;-84
2023/09/12 05:30:28;;;;;;;17.10;11.25;;;14.90;99.90;;;;;;4934917;29;21537;-84
2023/09/12 05:32:54;;;;;;;15.05;11.43;;;15.00;99.90;;;;;;4936526;29;20031;-84
2023/09/12 05:35:19;;;;;;;12.52;10.93;;;15.10;99.90;;;;;;4936892;29;20031;-85
2023/09/12 05:37:45;;;;;;;13.00;11.05;;;15.10;99.90;;;;;;4942100;28;21098;-84
2023/09/12 05:40:10;;;;;;;15.27;9.95;;;15.20;99.90;;;;;;4947101;29;20028;-84
2023/09/12 05:42:36;;;;;;;14.55;10.20;;;15.20;99.90;;;;;;4953435;28;20071;-83
2023/09/12 05:45:02;;;;;;;15.82;10.98;;;15.30;99.90;;;;;;4966440;28;20039;-83
2023/09/12 05:47:28;;;;;;;11.90;10.60;;;15.30;99.90;;;;;;4964646;28;20042;-84
2023/09/12 05:49:53;;;;;;;18.25;11.77;;;15.40;99.90;;;;;;4938464;29;20096;-84
2023/09/12 05:52:19;;;;;;;14.80;10.63;;;15.40;99.90;;;;;;4938899;29;20031;-85
2023/09/12 05:54:45;;;;;;;16.25;11.38;;;15.50;99.90;;;;;;4938373;29;20128;-84
2023/09/12 05:57:11;;;;;;;12.93;11.55;;;15.60;99.90;;;;;;4937874;29;21434;-84
2023/09/12 05:59:38;;;;;;;13.80;10.90;;;15.60;99.90;;;;;;4937476;29;20031;-84
2023/09/12 06:02:05;;;;;;;19.27;11.48;;;15.80;99.90;;;;;;4937441;29;20770;-84
2023/09/12 06:04:31;;;;;;;17.25;11.60;;;15.80;99.90;;;;;;4937336;29;20035;-83
2023/09/12 06:06:57;;;;;;;15.57;12.02;;;15.90;99.90;;;;;;4937351;29;20044;-84
2023/09/12 06:09:23;;;;;;;14.50;11.55;;;16.00;99.90;;;;;;4935670;29;20031;-84
2023/09/12 06:11:48;;;;;;;16.58;12.40;;;16.10;99.90;;;;;;4938182;29;20098;-84
2023/09/12 06:14:14;;;;;;;19.33;11.93;;;16.20;99.90;;;;;;4937409;29;20035;-84
2023/09/12 06:16:39;;;;;;;14.60;12.00;;;16.30;99.90;;;;;;4937424;29;20081;-85
2023/09/12 06:19:06;;;;;;;15.05;9.98;;;16.40;99.90;;;;;;4937412;29;20162;-84
2023/09/12 06:21:31;;;;;;;13.40;10.88;;;16.50;99.90;;;;;;4936948;29;20134;-84
2023/09/12 06:24:11;;;;;;;16.15;10.70;;;16.60;99.90;;;;;;4937252;29;20564;-84
2023/09/12 06:26:38;;;;;;;12.38;10.05;;;16.70;99.90;;;;;;4937342;29;20022;-84
2023/09/12 06:29:04;;;;;;;11.88;9.73;;;16.80;99.90;;;;;;4937053;29;20056;-84
2023/09/12 06:31:29;;;;;;;14.27;10.95;;;16.90;99.90;;;;;;4936513;29;20036;-84
2023/09/12 06:33:55;;;;;;;14.35;10.05;;;17.00;99.90;;;;;;4937696;29;20180;-84
2023/09/12 06:36:20;;;;;;;14.25;9.95;;;17.00;99.90;;;;;;4937060;29;20031;-85
2023/09/12 06:38:46;;;;;;;13.95;10.02;;;17.10;99.90;;;;;;4937430;29;20031;-85
2023/09/12 06:41:11;;;;;;;13.05;9.50;;;17.20;99.90;;;;;;4936662;29;20030;-84
2023/09/12 06:43:37;;;;;;;13.18;9.77;;;17.30;99.90;;;;;;4936310;29;20027;-84
2023/09/12 06:46:02;;;;;;;13.45;9.60;;;17.40;99.90;;;;;;4937161;29;20586;-85
2023/09/12 06:48:28;;;;;;;12.45;8.95;;;17.50;99.90;;;;;;4936577;28;20089;-85
2023/09/12 06:50:54;;;;;;;14.55;9.32;;;17.60;99.90;;;;;;4935742;29;20629;-85
2023/09/12 06:53:20;;;;;;;12.75;9.52;;;17.70;99.90;;;;;;4936301;29;20487;-85
2023/09/12 06:55:45;;;;;;;12.50;9.35;;;17.70;99.90;;;;;;4938865;29;20050;-85
2023/09/12 06:58:12;;;;;;;16.83;9.95;;;17.90;99.90;;;;;;4936966;29;20038;-84
2023/09/12 07:00:38;;;;;;;12.57;8.80;;;17.90;99.90;;;;;;4936877;29;20825;-84
2023/09/12 07:03:04;;;;;;;19.10;9.65;;;18.10;99.90;;;;;;4936629;29;20039;-85
2023/09/12 07:05:29;;;;;;;14.32;9.25;;;18.20;99.90;;;;;;4936506;29;20051;-84
2023/09/12 07:07:55;;;;;;;15.32;8.82;;;18.30;99.90;;;;;;4942190;29;20035;-84
2023/09/12 07:10:21;;;;;;;10.63;8.95;;;18.40;99.90;;;;;;4942169;29;20621;-84
2023/09/12 07:12:46;;;;;;;11.43;8.27;;;18.50;99.90;;;;;;4941985;29;20173;-84
2023/09/12 07:15:12;;;;;;;13.98;8.63;;;18.60;99.90;;;;;;4938860;29;20036;-84
2023/09/12 07:17:38;;;;;;;12.68;8.40;;;18.80;99.90;;;;;;4936288;29;20105;-85
2023/09/12 07:20:04;;;;;;;11.85;8.80;;;18.90;99.90;;;;;;4935054;29;20114;-84
2023/09/12 07:22:30;;;;;;;13.48;8.40;;;19.00;99.90;;;;;;4937217;29;20067;-84
2023/09/12 07:25:00;;;;;;;13.18;9.55;;;19.20;99.90;;;;;;4937442;29;21660;-85
2023/09/12 07:27:25;;;;;;;10.85;8.15;;;19.30;99.90;;;;;;4937287;29;20031;-85
2023/09/12 07:29:51;;;;;;;11.45;8.60;;;19.50;99.90;;;;;;4935441;29;21170;-84
2023/09/12 07:32:16;;;;;;;12.40;8.38;;;19.60;99.90;;;;;;4936744;29;20046;-85
2023/09/12 07:34:48;;;;;;;9.30;7.70;;;19.70;99.90;;;;;;4936343;29;20031;-85
2023/09/12 07:37:14;;;;;;;15.05;8.73;;;19.80;99.90;;;;;;4937900;29;20885;-85
2023/09/12 07:39:39;;;;;;;12.95;8.07;;;20.10;99.90;;;;;;4936864;29;20032;-84
2023/09/12 07:42:06;;;;;;;12.07;8.25;;;20.20;99.90;;;;;;4941359;29;20020;-85
2023/09/12 07:44:32;;;;;;;11.38;7.97;;;20.30;99.90;;;;;;4935283;29;20059;-85
2023/09/12 07:46:58;;;;;;;11.57;8.75;;;20.40;99.90;;;;;;4936893;29;20085;-85
2023/09/12 07:49:26;;;;;;;12.10;8.43;;;20.60;99.90;;;;;;4935148;29;20027;-85
2023/09/12 07:51:51;;;;;;;10.20;7.68;;;20.80;99.90;;;;;;4936922;29;20068;-84
2023/09/12 07:54:17;;;;;;;10.77;7.63;;;21.00;99.90;;;;;;4935863;29;20024;-85
2023/09/12 07:56:43;;;;;;;10.25;7.22;;;21.10;99.90;;;;;;4936379;29;20043;-85
2023/09/12 07:59:10;;;;;;;10.05;7.53;;;21.30;99.90;;;;;;4935091;28;20035;-84
2023/09/12 08:01:35;;;;;;;8.55;7.50;;;21.30;99.90;;;;;;4936370;29;20023;-85
2023/09/12 08:04:01;;;;;;;10.25;7.57;;;21.40;99.90;;;;;;4936005;29;20513;-84
2023/09/12 08:06:27;;;;;;;10.75;7.82;;;21.60;99.90;;;;;;4924713;29;21435;-84
2023/09/12 08:08:52;;;;;;;10.93;7.25;;;21.70;99.90;;;;;;4936514;29;20027;-85
2023/09/12 08:11:18;;;;;;;11.00;7.20;;;21.90;99.90;;;;;;4936815;29;20031;-85
2023/09/12 08:13:45;;;;;;;11.07;7.30;;;22.00;99.90;;;;;;4936904;29;20082;-85
2023/09/12 08:16:11;;;;;;;15.02;7.30;;;22.10;99.90;;;;;;4936137;29;20031;-85
2023/09/12 08:18:36;;;;;;;8.50;7.32;;;22.20;99.90;;;;;;4935998;29;20035;-84
2023/09/12 08:21:02;;;;;;;9.57;7.20;;;22.30;99.90;;;;;;4935172;29;20021;-84
2023/09/12 08:23:27;;;;;;;8.30;7.15;;;22.50;99.90;;;;;;4936530;29;20031;-85
2023/09/12 08:25:53;;;;;;;10.40;8.07;;;22.60;99.90;;;;;;4919365;29;20031;-84
2023/09/12 08:28:19;;;;;;;10.07;7.40;;;22.70;99.90;;;;;;4939192;29;20095;-84
2023/09/12 08:30:46;;;;;;;11.55;6.85;;;22.90;99.90;;;;;;4938719;29;20040;-85
2023/09/12 08:33:11;;;;;;;11.45;7.13;;;23.00;99.90;;;;;;4941107;29;20064;-85
2023/09/12 08:35:37;;;;;;;8.35;7.13;;;23.10;99.90;;;;;;4946448;29;20027;-84
2023/09/12 08:38:04;;;;;;;11.55;7.82;;;23.20;99.90;;;;;;4957857;28;20030;-84
2023/09/12 08:40:31;;;;;;;9.63;7.05;;;23.30;99.90;;;;;;4962503;28;20027;-84
2023/09/12 08:42:58;;;;;;;7.75;6.32;;;23.40;99.90;;;;;;4952709;28;20038;-85
2023/09/12 08:45:23;;;;;;;10.38;7.25;;;23.50;99.90;;;;;;4934427;29;20114;-85
2023/09/12 08:47:53;;;;;;;7.88;7.05;;;23.70;99.90;;;;;;4934638;29;20849;-85
2023/09/12 08:50:21;;;;;;;7.38;6.50;;;23.90;99.90;;;;;;4935671;29;20524;-85
2023/09/12 08:52:47;;;;;;;13.30;7.40;;;24.10;99.90;;;;;;4918456;29;20036;-85
2023/09/12 08:55:13;;;;;;;9.43;6.78;;;24.20;99.90;;;;;;4933989;29;20038;-85
2023/09/12 08:57:41;;;;;;;8.00;6.65;;;24.40;99.90;;;;;;4933450;29;20549;-86
2023/09/12 09:00:14;;;;;;;11.02;6.95;;;24.50;99.90;;;;;;4934040;29;20038;-85
2023/09/12 09:02:43;;;;;;;10.30;7.03;;;24.80;99.90;;;;;;4935406;29;20042;-84
2023/09/12 09:05:11;;;;;;;8.07;6.45;;;25.00;99.90;;;;;;4934065;29;20067;-85
2023/09/12 09:07:38;;;;;;;10.13;7.40;;;25.10;99.90;;;;;;4933711;29;20058;-85
2023/09/12 09:10:14;;;;;;;12.70;6.70;;;25.30;99.90;;;;;;4935129;29;20047;-85
2023/09/12 09:12:40;;;;;;;9.13;7.22;;;25.50;99.90;;;;;;4937925;28;20030;-83
2023/09/12 09:15:29;;;;;;;10.68;6.85;;;25.70;99.90;;;;;;4938114;29;20027;-83
2023/09/12 09:18:00;;;;;;;9.80;6.47;;;26.00;99.90;;;;;;4938238;29;20028;-83
2023/09/12 09:20:37;;;;;;;8.15;6.63;;;26.10;99.90;;;;;;4938259;29;20414;-83
2023/09/12 09:23:10;;;;;;;10.63;6.88;;;26.30;99.90;;;;;;4939146;29;20025;-84
2023/09/12 09:25:40;;;;;;;12.07;6.35;;;26.50;99.90;;;;;;4939320;29;20040;-83
2023/09/12 09:28:20;;;;;;;9.20;6.65;;;26.60;99.90;;;;;;4939594;29;20378;-84
2023/09/12 09:30:54;;;;;;;11.30;7.25;;;26.70;99.90;;;;;;4939079;29;20027;-83
2023/09/12 09:33:20;;;;;;;10.50;6.93;;;26.80;99.90;;;;;;4940663;29;20038;-84
2023/09/12 09:35:48;;;;;;;17.80;7.50;;;27.00;99.90;;;;;;4938690;29;20035;-84
2023/09/12 09:38:16;;;;;;;10.75;6.55;;;27.10;99.90;;;;;;4938483;29;20046;-83
2023/09/12 09:40:43;;;;;;;10.05;6.10;;;27.30;99.90;;;;;;4936831;29;20039;-83
2023/09/12 09:43:08;;;;;;;12.10;6.88;;;27.40;99.90;;;;;;4938833;29;20919;-83
2023/09/12 09:45:43;;;;;;;11.23;5.78;;;27.60;99.90;;;;;;4938108;29;20093;-83
2023/09/12 09:48:09;;;;;;;9.55;6.80;;;27.70;99.90;;;;;;4937818;29;20554;-84
2023/09/12 09:50:38;;;;;;;9.05;6.35;;;27.90;99.90;;;;;;4937818;29;20027;-84
2023/09/12 09:53:08;;;;;;;10.88;6.88;;;27.90;99.90;;;;;;4938285;29;20043;-83
2023/09/12 09:55:34;;;;;;;8.80;6.47;;;28.00;99.90;;;;;;4937785;29;20042;-84
2023/09/12 09:57:59;;;;;;;9.10;6.25;;;28.10;99.90;;;;;;4938012;29;20027;-83
2023/09/12 10:00:27;;;;;;;11.82;6.55;;;28.10;99.90;;;;;;4937024;29;20035;-84
2023/09/12 10:02:55;;;;;;;9.70;6.63;;;28.30;99.90;;;;;;4937945;29;20506;-84
2023/09/12 10:05:21;;;;;;;10.45;6.60;;;28.40;99.90;;;;;;4936302;29;20186;-84
2023/09/12 10:07:50;;;;;;;9.57;6.35;;;28.50;99.90;;;;;;4938700;29;20150;-83
2023/09/12 10:10:17;;;;;;;11.77;5.82;;;28.60;99.90;;;;;;4936890;29;20058;-83
2023/09/12 10:12:50;;;;;;;9.50;6.38;;;28.70;99.90;;;;;;4937524;29;20028;-84
2023/09/12 10:15:19;;;;;;;8.73;5.90;;;28.70;99.90;;;;;;4937649;29;20035;-84
2023/09/12 10:17:47;;;;;;;11.00;5.50;;;28.90;99.90;;;;;;4938115;29;21021;-84
2023/09/12 10:20:19;;;;;;;12.65;6.03;;;29.00;99.90;;;;;;4937945;29;20028;-84
2023/09/12 10:22:58;;;;;;;9.25;5.80;;;29.00;99.90;;;;;;4938524;29;20106;-84
2023/09/12 10:25:24;;;;;;;11.25;6.20;;;29.10;99.90;;;;;;4937713;29;20031;-83
2023/09/12 10:27:52;;;;;;;9.82;5.43;;;29.20;99.90;;;;;;4939046;29;20028;-83
2023/09/12 10:30:18;;;;;;;6.00;5.30;;;29.30;99.90;;;;;;4939805;29;20402;-84
2023/09/12 10:32:46;;;;;;;10.32;6.15;;;29.30;99.90;;;;;;4941429;29;20519;-83
2023/09/12 10:35:12;;;;;;;6.72;5.75;;;29.30;99.90;;;;;;4941028;29;20111;-83
2023/09/12 10:37:40;;;;;;;8.90;5.50;;;29.40;99.90;;;;;;4938874;29;20114;-84
2023/09/12 10:40:08;;;;;;;6.90;5.97;;;29.50;99.90;;;;;;4936540;29;20407;-84
2023/09/12 10:42:35;;;;;;;11.35;5.50;;;29.70;99.90;;;;;;4937525;29;20038;-84
2023/09/12 10:45:03;;;;;;;7.68;5.55;;;29.70;99.90;;;;;;4937432;29;20043;-83
2023/09/12 10:47:29;;;;;;;9.77;5.50;;;29.80;99.90;;;;;;4938441;29;20086;-83
2023/09/12 10:49:56;;;;;;;6.65;5.00;;;29.90;99.90;;;;;;4935915;29;20031;-84
2023/09/12 10:52:26;;;;;;;7.70;5.00;;;29.90;99.90;;;;;;4942598;29;20106;-82
2023/09/12 10:54:52;;;;;;;6.15;5.50;;;30.10;99.90;;;;;;4943208;29;20037;-83
2023/09/12 10:57:19;;;;;;;7.20;5.30;;;30.40;99.90;;;;;;4943716;29;20766;-83
2023/09/12 10:59:59;;;;;;;7.32;5.75;;;30.50;99.90;;;;;;4936949;29;20035;-84
2023/09/12 11:02:31;;;;;;;7.95;5.45;;;30.30;99.90;;;;;;4938324;29;20019;-83
2023/09/12 11:05:04;;;;;;;6.63;5.57;;;30.20;99.90;;;;;;4936880;29;20055;-83
2023/09/12 11:07:36;;;;;;;7.05;5.38;;;30.30;99.90;;;;;;4938543;29;20039;-85
2023/09/12 11:10:15;;;;;;;7.90;5.70;;;30.40;99.90;;;;;;4937578;29;20063;-84
2023/09/12 11:12:41;;;;;;;9.10;5.65;;;30.50;99.90;;;;;;4938055;29;20027;-84
2023/09/12 11:15:08;;;;;;;8.20;5.78;;;30.60;99.90;;;;;;4938548;29;20027;-83
2023/09/12 11:17:46;;;;;;;8.13;5.65;;;30.70;99.90;;;;;;4939260;29;20378;-84
2023/09/12 11:20:13;;;;;;;9.18;6.20;;;30.70;99.90;;;;;;4938028;29;20032;-83
2023/09/12 11:22:40;;;;;;;7.70;5.75;;;30.70;99.90;;;;;;4940515;29;20031;-83
2023/09/12 11:25:23;;;;;;;5.97;4.90;;;30.50;99.90;;;;;;4941953;29;20032;-84
2023/09/12 11:27:51;;;;;;;7.00;5.13;;;30.60;99.90;;;;;;4948045;29;20019;-82
2023/09/12 11:30:18;;;;;;;6.85;5.22;;;30.60;99.90;;;;;;4943190;29;20101;-83
2023/09/12 11:32:50;;;;;;;6.93;5.30;;;30.50;99.90;;;;;;4957221;28;20062;-84
2023/09/12 11:35:16;;;;;;;6.57;5.28;;;30.60;99.90;;;;;;4953375;28;20042;-82
2023/09/12 11:37:55;;;;;;;12.70;5.38;;;30.80;99.90;;;;;;4960054;28;20047;-83
2023/09/12 11:40:42;;;;;;;9.48;5.65;;;31.00;99.90;;;;;;4936645;29;20516;-83
2023/09/12 11:43:25;;;;;;;8.65;5.03;;;30.80;99.90;;;;;;4936695;29;20057;-84
2023/09/12 11:45:51;;;;;;;6.38;5.00;;;30.80;99.90;;;;;;4935036;29;20031;-84
2023/09/12 11:48:17;;;;;;;8.70;5.10;;;30.70;99.90;;;;;;4936649;29;20054;-84
2023/09/12 11:50:53;;;;;;;11.98;5.63;;;30.60;99.90;;;;;;4936165;29;20182;-83
2023/09/12 11:53:25;;;;;;;6.35;5.00;;;30.40;99.90;;;;;;4936716;29;20027;-83
2023/09/12 11:55:54;;;;;;;7.57;5.00;;;30.40;99.90;;;;;;4935909;29;20114;-84
2023/09/12 11:58:20;;;;;;;6.75;5.13;;;30.60;99.90;;;;;;4937311;29;20036;-85
2023/09/12 12:00:51;;;;;;;6.53;5.10;;;30.70;99.90;;;;;;4918698;29;20047;-83
2023/09/12 12:03:22;;;;;;;9.25;5.07;;;30.80;99.90;;;;;;4935721;29;20099;-84
2023/09/12 12:05:48;;;;;;;5.35;4.80;;;30.90;99.90;;;;;;4935503;29;20072;-84
2023/09/12 12:08:16;;;;;;;9.10;5.10;;;30.90;99.90;;;;;;4936317;29;20042;-84
2023/09/12 12:10:41;;;;;;;10.00;5.22;;;31.00;99.90;;;;;;4931851;29;20053;-84
2023/09/12 12:13:12;;;;;;;5.97;4.93;;;31.10;99.90;;;;;;4917507;29;20594;-83
2023/09/12 12:15:37;;;;;;;9.15;5.07;;;31.50;99.90;;;;;;4935320;29;20474;-83
2023/09/12 12:18:03;;;;;;;7.78;5.00;;;31.70;99.90;;;;;;4934275;29;20123;-83
2023/09/12 12:20:30;;;;;;;7.25;4.90;;;31.70;99.90;;;;;;4934390;29;20031;-84
2023/09/12 12:22:55;;;;;;;7.43;4.68;;;31.60;99.90;;;;;;4935933;29;20047;-83
2023/09/12 12:25:22;;;;;;;7.88;4.72;;;31.50;99.90;;;;;;4935210;29;20195;-83
2023/09/12 12:27:47;;;;;;;7.60;5.05;;;31.60;99.90;;;;;;4934719;29;20546;-84
2023/09/12 12:30:13;;;;;;;10.23;5.10;;;31.60;99.90;;;;;;4933871;29;20031;-84
2023/09/12 12:32:46;;;;;;;7.95;5.40;;;31.70;99.90;;;;;;4935861;29;20023;-84
2023/09/12 12:35:18;;;;;;;8.60;4.60;;;31.80;99.90;;;;;;4935323;29;20032;-84